createdAt,value
2022-10-29T11:42:41.668Z,5.28
2022-10-29T11:52:39.047Z,5.60
2022-10-29T12:02:59.739Z,4.60
2022-10-29T12:13:01.806Z,5.20
2022-10-29T12:23:28.939Z,5.28
2022-10-29T12:33:52.279Z,4.60
2022-10-29T12:53:34.952Z,4.95
2022-10-29T13:13:18.681Z,5.00
2022-10-29T13:25:38.464Z,4.65
2022-10-29T13:35:40.048Z,4.35
2022-10-29T13:45:41.325Z,5.60
2022-10-29T13:55:40.183Z,5.95
2022-10-29T14:05:53.285Z,4.70
2022-10-29T14:16:47.149Z,4.30
2022-10-29T14:26:46.307Z,5.20
2022-10-29T14:36:47.166Z,5.63
2022-10-29T14:47:11.666Z,6.35
2022-10-29T14:57:16.302Z,7.30
2022-10-29T15:07:31.147Z,5.90
2022-10-29T15:17:31.277Z,8.13
2022-10-29T15:27:28.867Z,6.75
2022-10-29T15:37:32.303Z,6.53
2022-10-29T15:47:29.865Z,6.85
2022-10-29T15:57:27.775Z,7.28
2022-10-29T16:07:25.184Z,6.95
2022-10-29T16:17:22.638Z,6.53
2022-10-29T16:27:20.119Z,6.95
2022-10-29T16:37:19.467Z,5.40
2022-10-29T16:47:16.947Z,6.15
2022-10-29T16:57:14.515Z,6.68
2022-10-29T17:07:11.878Z,5.82
2022-10-29T17:17:09.186Z,6.68
2022-10-29T17:27:06.538Z,6.90
2022-10-29T17:37:04.066Z,7.55
2022-10-29T17:47:01.446Z,7.55
2022-10-29T17:56:58.768Z,6.93
2022-10-29T18:06:56.364Z,6.70
2022-10-29T18:16:53.697Z,6.95
2022-10-29T18:26:51.578Z,7.00
2022-10-29T18:36:48.905Z,6.88
2022-10-29T18:46:46.395Z,6.88
2022-10-29T18:56:43.816Z,6.93
2022-10-29T19:06:41.356Z,6.38
2022-10-29T19:16:38.714Z,6.95
2022-10-29T19:26:36.992Z,6.13
2022-10-29T19:36:36.556Z,6.43
2022-10-29T19:46:34.206Z,7.25
2022-10-29T19:56:31.574Z,6.20
2022-10-29T20:06:29.057Z,6.70
2022-10-29T20:16:26.557Z,6.35
2022-10-29T20:26:24.038Z,7.13
2022-10-29T20:36:21.830Z,7.70
2022-10-29T20:46:19.456Z,6.20
2022-10-29T20:56:17.135Z,7.05
2022-10-29T21:06:17.921Z,7.35
2022-10-29T21:16:24.735Z,6.93
2022-10-29T21:26:24.764Z,6.97
2022-10-29T21:36:22.491Z,6.43
2022-10-29T21:46:19.852Z,7.80
2022-10-29T21:56:17.429Z,6.25
2022-10-29T22:06:17.897Z,5.70
2022-10-29T22:16:15.316Z,5.65
2022-10-29T22:26:13.965Z,6.07
2022-10-29T22:36:22.918Z,5.88
2022-10-29T22:46:21.868Z,6.43
2022-10-29T22:56:27.808Z,6.00
2022-10-29T23:06:25.340Z,5.43
2022-10-29T23:16:24.076Z,5.97
2022-10-29T23:26:22.715Z,5.30
2022-10-29T23:36:22.247Z,6.15
2022-10-29T23:46:20.199Z,5.30
2022-10-29T23:56:17.605Z,5.07
